createdAt,value
2022-09-16T00:00:29.083Z,0.00
2022-09-16T00:01:29.006Z,0.00
2022-09-16T00:02:29.007Z,0.00
2022-09-16T00:03:28.961Z,0.00
2022-09-16T00:04:28.933Z,0.00
2022-09-16T00:05:28.930Z,0.00
2022-09-16T00:06:28.912Z,0.00
2022-09-16T00:07:28.910Z,0.00
2022-09-16T00:08:28.890Z,0.00
2022-09-16T00:09:28.876Z,0.00
2022-09-16T00:10:28.876Z,0.00
2022-09-16T00:11:28.859Z,0.00
2022-09-16T00:12:28.844Z,0.00
2022-09-16T00:13:28.834Z,0.00
2022-09-16T00:14:28.826Z,0.00
2022-09-16T00:15:28.826Z,0.00
2022-09-16T00:16:28.855Z,0.00
2022-09-16T00:17:28.793Z,0.00
2022-09-16T00:18:28.783Z,0.00
2022-09-16T00:19:28.787Z,0.00
2022-09-16T00:20:28.770Z,0.00
2022-09-16T00:21:28.757Z,0.00
2022-09-16T00:22:28.739Z,0.00
2022-09-16T00:23:28.719Z,0.00
2022-09-16T00:24:28.725Z,0.00
2022-09-16T00:25:28.711Z,0.00
2022-09-16T00:26:28.706Z,0.00
2022-09-16T00:27:28.685Z,0.00
2022-09-16T00:28:28.670Z,0.00
2022-09-16T00:29:28.726Z,0.00
2022-09-16T00:30:28.661Z,0.00
2022-09-16T00:31:28.664Z,0.00
2022-09-16T00:32:28.626Z,0.00
2022-09-16T00:33:28.610Z,0.00
2022-09-16T00:34:28.608Z,0.00
2022-09-16T00:35:28.623Z,0.00
2022-09-16T00:36:28.576Z,0.00
2022-09-16T00:37:28.579Z,0.00
2022-09-16T00:38:28.556Z,0.00
2022-09-16T00:39:28.548Z,0.00
2022-09-16T00:40:28.612Z,0.00
2022-09-16T00:41:28.535Z,0.00
2022-09-16T00:42:28.527Z,0.00
2022-09-16T00:43:28.518Z,0.00
2022-09-16T00:44:28.500Z,0.00
2022-09-16T00:45:28.518Z,0.00
2022-09-16T00:46:28.531Z,0.00
2022-09-16T00:47:28.459Z,0.00
2022-09-16T00:48:28.456Z,0.00
2022-09-16T00:49:28.434Z,0.00
2022-09-16T00:50:28.432Z,0.00
2022-09-16T00:51:28.439Z,0.00
2022-09-16T00:52:28.409Z,0.00
2022-09-16T00:53:28.390Z,0.00
2022-09-16T00:54:28.386Z,0.00
2022-09-16T00:55:28.392Z,0.00
2022-09-16T00:56:28.360Z,0.00
2022-09-16T00:57:28.352Z,0.00
2022-09-16T00:58:28.341Z,0.00
2022-09-16T00:59:28.342Z,0.00
2022-09-16T01:00:28.364Z,0.00
2022-09-16T01:01:28.307Z,0.00
2022-09-16T01:02:28.399Z,0.00
2022-09-16T01:03:28.319Z,0.00
2022-09-16T01:04:28.273Z,0.00
2022-09-16T01:05:28.273Z,0.00
2022-09-16T01:06:28.272Z,0.00
2022-09-16T01:07:28.262Z,0.00
2022-09-16T01:08:28.231Z,0.00
2022-09-16T01:09:28.297Z,0.00
2022-09-16T01:10:28.226Z,0.00
2022-09-16T01:11:28.202Z,0.00
2022-09-16T01:12:28.182Z,0.00
2022-09-16T01:13:28.180Z,0.00
2022-09-16T01:14:28.174Z,0.00
2022-09-16T01:15:28.174Z,0.00
2022-09-16T01:16:28.205Z,0.00
2022-09-16T01:17:28.135Z,0.00
2022-09-16T01:18:28.120Z,0.00
2022-09-16T01:19:28.118Z,0.00
2022-09-16T01:20:28.121Z,0.00
2022-09-16T01:21:28.089Z,0.00
2022-09-16T01:22:28.119Z,0.00
2022-09-16T01:23:28.085Z,0.00
2022-09-16T01:24:28.056Z,0.00
2022-09-16T01:25:28.060Z,0.00
2022-09-16T01:26:28.052Z,0.00
2022-09-16T01:27:28.022Z,0.00
2022-09-16T01:28:28.010Z,0.00
2022-09-16T01:29:28.006Z,0.00
2022-09-16T01:30:28.009Z,0.00
2022-09-16T01:31:28.020Z,0.00
2022-09-16T01:32:27.993Z,0.00
2022-09-16T01:33:27.956Z,0.00
2022-09-16T01:34:27.956Z,0.00
2022-09-16T01:35:27.972Z,0.00
2022-09-16T01:36:27.937Z,0.00
2022-09-16T01:37:27.930Z,0.00
2022-09-16T01:38:27.902Z,0.00
2022-09-16T01:39:27.911Z,0.00
2022-09-16T01:40:27.961Z,0.00
2022-09-16T01:41:27.867Z,0.00
2022-09-16T01:42:27.869Z,0.00
2022-09-16T01:43:27.888Z,0.00
2022-09-16T01:44:27.835Z,0.00
2022-09-16T01:45:27.831Z,0.00
2022-09-16T01:46:27.899Z,0.00
2022-09-16T01:47:27.847Z,0.00
2022-09-16T01:48:27.797Z,0.00
2022-09-16T01:49:27.777Z,0.00
2022-09-16T01:50:27.780Z,0.00
2022-09-16T01:51:27.756Z,0.00
2022-09-16T01:52:27.747Z,0.00
2022-09-16T01:53:27.733Z,0.00
2022-09-16T01:54:27.732Z,0.00
2022-09-16T01:55:27.742Z,0.00
2022-09-16T01:56:27.704Z,0.00
2022-09-16T01:57:27.690Z,0.00
2022-09-16T01:58:27.680Z,0.00
2022-09-16T01:59:27.667Z,0.00
2022-09-16T02:00:27.669Z,0.00
2022-09-16T02:01:27.671Z,0.00
2022-09-16T02:02:27.729Z,0.00
2022-09-16T02:03:27.629Z,0.00
2022-09-16T02:04:27.615Z,0.00
2022-09-16T02:05:27.630Z,0.00
2022-09-16T02:06:27.638Z,0.00
2022-09-16T02:07:27.582Z,0.00
2022-09-16T02:08:27.602Z,0.00
2022-09-16T02:09:27.570Z,0.00
2022-09-16T02:10:27.566Z,0.00
2022-09-16T02:11:27.668Z,0.00
2022-09-16T02:12:27.540Z,0.00
2022-09-16T02:13:27.554Z,0.00
2022-09-16T02:14:27.501Z,0.00
2022-09-16T02:15:27.506Z,0.00
2022-09-16T02:16:27.525Z,0.00
2022-09-16T02:17:27.474Z,0.00
2022-09-16T02:18:27.457Z,0.00
2022-09-16T02:19:27.463Z,0.00
2022-09-16T02:20:27.464Z,0.00
2022-09-16T02:21:27.433Z,0.00
2022-09-16T02:22:27.422Z,0.00
2022-09-16T02:23:27.411Z,0.00
2022-09-16T02:24:27.401Z,0.00
2022-09-16T02:25:27.395Z,0.00
2022-09-16T02:26:27.372Z,0.00
2022-09-16T02:27:27.378Z,0.00
2022-09-16T02:28:27.373Z,0.00
2022-09-16T02:29:27.342Z,0.00
2022-09-16T02:30:27.361Z,0.00
2022-09-16T02:31:27.424Z,0.00
2022-09-16T02:32:27.301Z,0.00
2022-09-16T02:33:27.313Z,0.00
2022-09-16T02:34:27.283Z,0.00
2022-09-16T02:35:27.290Z,0.00
2022-09-16T02:36:27.262Z,0.00
2022-09-16T02:37:27.252Z,0.00
2022-09-16T02:38:27.263Z,0.00
2022-09-16T02:39:27.227Z,0.00
2022-09-16T02:40:27.278Z,0.00
2022-09-16T02:41:27.212Z,0.00
2022-09-16T02:42:27.192Z,0.00
2022-09-16T02:43:27.201Z,0.00
2022-09-16T02:44:27.171Z,0.00
2022-09-16T02:45:27.188Z,0.00
2022-09-16T02:46:27.213Z,0.00
2022-09-16T02:47:27.141Z,0.00
2022-09-16T02:48:27.147Z,0.00
2022-09-16T02:49:27.118Z,0.00
2022-09-16T02:50:27.119Z,0.00
2022-09-16T02:51:27.100Z,0.00
2022-09-16T02:52:27.086Z,0.00
2022-09-16T02:53:27.078Z,0.00
2022-09-16T02:54:27.061Z,0.00
2022-09-16T02:55:27.061Z,0.00
2022-09-16T02:56:27.052Z,0.00
2022-09-16T02:57:27.061Z,0.00
2022-09-16T02:58:27.017Z,0.00
2022-09-16T02:59:27.029Z,0.00
2022-09-16T03:00:27.013Z,0.00
2022-09-16T03:01:27.064Z,0.00
2022-09-16T03:02:27.013Z,0.00
2022-09-16T03:03:26.965Z,0.00
2022-09-16T03:04:26.979Z,0.00
2022-09-16T03:05:26.952Z,0.00
2022-09-16T03:06:26.934Z,0.00
2022-09-16T03:07:26.921Z,0.00
2022-09-16T03:08:26.909Z,0.00
2022-09-16T03:09:26.901Z,0.00
2022-09-16T03:10:26.905Z,0.00
2022-09-16T03:11:30.291Z,0.00
2022-09-16T03:12:26.864Z,0.00
2022-09-16T03:13:26.848Z,0.00
2022-09-16T03:14:26.844Z,0.00
2022-09-16T03:15:26.876Z,0.00
2022-09-16T03:16:26.881Z,0.00
2022-09-16T03:17:26.837Z,0.00
2022-09-16T03:18:26.804Z,0.00
2022-09-16T03:19:26.814Z,0.00
2022-09-16T03:20:26.781Z,0.00
2022-09-16T03:21:26.783Z,0.00
2022-09-16T03:22:26.764Z,0.00
2022-09-16T03:23:26.740Z,0.00
2022-09-16T03:24:26.734Z,0.00
2022-09-16T03:25:26.741Z,0.00
2022-09-16T03:26:26.709Z,0.00
2022-09-16T03:27:26.710Z,0.00
2022-09-16T03:28:26.691Z,0.00
2022-09-16T03:29:26.687Z,0.00
2022-09-16T03:30:26.675Z,0.00
2022-09-16T03:31:26.779Z,0.00
2022-09-16T03:32:26.648Z,0.00
2022-09-16T03:33:26.642Z,0.00
2022-09-16T03:34:26.623Z,0.00
2022-09-16T03:35:26.614Z,0.00
2022-09-16T03:36:26.599Z,0.00
2022-09-16T03:37:26.587Z,0.00
2022-09-16T03:38:26.574Z,0.00
2022-09-16T03:39:26.567Z,0.00
2022-09-16T03:40:26.668Z,0.00
2022-09-16T03:41:26.537Z,0.00
2022-09-16T03:42:26.535Z,0.00
2022-09-16T03:43:26.574Z,0.00
2022-09-16T03:44:26.524Z,0.00
2022-09-16T03:45:26.514Z,0.00
2022-09-16T03:46:26.552Z,0.00
2022-09-16T03:47:26.486Z,0.00
2022-09-16T03:48:26.480Z,0.00
2022-09-16T03:49:26.449Z,0.00
2022-09-16T03:50:26.457Z,0.00
2022-09-16T03:51:26.445Z,0.00
2022-09-16T03:52:26.473Z,0.00
2022-09-16T03:53:26.407Z,0.00
2022-09-16T03:54:26.406Z,0.00
2022-09-16T03:55:26.396Z,0.00
2022-09-16T03:56:26.375Z,0.00
2022-09-16T03:57:26.363Z,0.00
2022-09-16T03:58:26.401Z,0.00
2022-09-16T03:59:26.357Z,0.00
2022-09-16T04:00:26.344Z,0.00
2022-09-16T04:01:26.465Z,0.00
2022-09-16T04:02:26.364Z,0.00
2022-09-16T04:03:29.943Z,0.00
2022-09-16T04:04:27.303Z,0.00
2022-09-16T04:05:26.299Z,0.00
2022-09-16T04:06:26.263Z,0.00
2022-09-16T04:07:26.259Z,0.00
2022-09-16T04:08:26.241Z,0.00
2022-09-16T04:09:26.292Z,0.00
2022-09-16T04:10:26.260Z,0.00
2022-09-16T04:11:26.209Z,0.00
2022-09-16T04:12:26.209Z,0.00
2022-09-16T04:13:26.200Z,0.00
2022-09-16T04:14:26.221Z,0.00
2022-09-16T04:15:26.178Z,0.00
2022-09-16T04:16:26.210Z,0.00
2022-09-16T04:17:26.143Z,0.00
2022-09-16T04:18:26.132Z,0.00
2022-09-16T04:19:26.137Z,0.00
2022-09-16T04:20:26.118Z,0.00
2022-09-16T04:21:26.099Z,0.00
2022-09-16T04:22:26.086Z,0.00
2022-09-16T04:23:26.077Z,0.00
2022-09-16T04:24:26.070Z,0.00
2022-09-16T04:25:26.067Z,0.00
2022-09-16T04:26:26.047Z,0.00
2022-09-16T04:27:26.034Z,0.00
2022-09-16T04:28:26.026Z,0.00
2022-09-16T04:29:26.009Z,0.00
2022-09-16T04:30:26.014Z,0.00
2022-09-16T04:31:26.119Z,0.00
2022-09-16T04:32:25.974Z,0.00
2022-09-16T04:33:25.973Z,0.00
2022-09-16T04:34:25.951Z,0.00
2022-09-16T04:35:25.978Z,0.00
2022-09-16T04:36:25.944Z,0.00
2022-09-16T04:37:25.922Z,0.00
2022-09-16T04:38:25.914Z,0.00
2022-09-16T04:39:25.896Z,0.00
2022-09-16T04:40:25.978Z,0.00
2022-09-16T04:41:25.881Z,0.00
2022-09-16T04:42:25.897Z,0.00
2022-09-16T04:43:25.856Z,0.00
2022-09-16T04:44:25.846Z,0.00
2022-09-16T04:45:25.844Z,0.00
2022-09-16T04:46:25.876Z,0.00
2022-09-16T04:47:25.818Z,0.00
2022-09-16T04:48:25.805Z,0.00
2022-09-16T04:49:25.785Z,0.00
2022-09-16T04:50:25.797Z,0.00
2022-09-16T04:51:25.780Z,0.00
2022-09-16T04:52:25.795Z,0.00
2022-09-16T04:53:25.750Z,0.00
2022-09-16T04:54:25.735Z,0.00
2022-09-16T04:55:25.734Z,0.00
2022-09-16T04:56:25.710Z,0.00
2022-09-16T04:57:25.715Z,0.00
2022-09-16T04:58:25.690Z,0.00
2022-09-16T04:59:25.687Z,0.00
2022-09-16T05:00:25.708Z,0.00
2022-09-16T05:01:25.692Z,0.00
2022-09-16T05:02:25.644Z,0.00
2022-09-16T05:03:25.691Z,0.00
2022-09-16T05:04:25.632Z,0.00
2022-09-16T05:05:25.654Z,0.00
2022-09-16T05:06:25.623Z,0.00
2022-09-16T05:07:25.608Z,0.00
2022-09-16T05:08:25.597Z,0.00
2022-09-16T05:09:25.576Z,0.00
2022-09-16T05:10:25.565Z,0.00
2022-09-16T05:11:25.544Z,0.00
2022-09-16T05:12:32.614Z,0.00
2022-09-16T05:13:25.522Z,0.00
2022-09-16T05:14:25.516Z,0.00
2022-09-16T05:15:25.514Z,0.00
2022-09-16T05:16:25.543Z,0.00
2022-09-16T05:17:49.353Z,0.00
2022-09-16T05:18:26.465Z,0.00
2022-09-16T05:19:25.455Z,0.00
2022-09-16T05:20:25.458Z,0.00
2022-09-16T05:21:25.435Z,0.00
2022-09-16T05:22:25.426Z,0.00
2022-09-16T05:23:25.527Z,0.00
2022-09-16T05:24:25.401Z,0.00
2022-09-16T05:25:25.399Z,0.00
2022-09-16T05:26:25.380Z,0.00
2022-09-16T05:27:25.365Z,0.00
2022-09-16T05:28:25.358Z,5.62
2022-09-16T05:29:25.347Z,0.00
2022-09-16T05:30:26.322Z,5.62
2022-09-16T05:31:25.324Z,5.62
2022-09-16T05:32:25.314Z,5.62
2022-09-16T05:33:25.309Z,5.62
2022-09-16T05:34:25.301Z,5.62
2022-09-16T05:35:25.286Z,5.62
2022-09-16T05:36:25.270Z,5.62
2022-09-16T05:37:25.254Z,5.62
2022-09-16T05:38:25.245Z,5.62
2022-09-16T05:39:26.123Z,5.62
2022-09-16T05:40:25.282Z,5.62
2022-09-16T05:41:25.215Z,5.62
2022-09-16T05:42:25.204Z,5.62
2022-09-16T05:43:25.189Z,5.62
2022-09-16T05:44:25.187Z,5.62
2022-09-16T05:45:30.029Z,5.62
2022-09-16T05:46:26.214Z,5.62
2022-09-16T05:47:25.142Z,0.00
2022-09-16T05:48:25.145Z,0.00
2022-09-16T05:49:25.126Z,5.62
2022-09-16T05:50:25.128Z,5.62
2022-09-16T05:51:25.102Z,11.25
2022-09-16T05:52:25.089Z,5.62
2022-09-16T05:53:25.077Z,5.62
2022-09-16T05:54:25.200Z,5.62
2022-09-16T05:55:25.174Z,5.62
2022-09-16T05:56:25.048Z,5.62
2022-09-16T05:57:25.029Z,11.25
2022-09-16T05:58:25.018Z,11.25
2022-09-16T05:59:25.019Z,5.62
2022-09-16T06:00:25.011Z,11.25
2022-09-16T06:01:25.066Z,11.25
2022-09-16T06:02:25.060Z,5.62
2022-09-16T06:03:24.973Z,5.62
2022-09-16T06:04:24.964Z,5.62
2022-09-16T06:05:24.957Z,5.62
2022-09-16T06:06:24.959Z,5.62
2022-09-16T06:07:24.924Z,16.88
2022-09-16T06:08:24.920Z,16.88
2022-09-16T06:09:24.913Z,11.25
2022-09-16T06:10:24.898Z,11.25
2022-09-16T06:11:24.998Z,5.62
2022-09-16T06:12:24.874Z,5.62
2022-09-16T06:13:24.862Z,16.88
2022-09-16T06:14:24.850Z,11.25
2022-09-16T06:15:24.852Z,5.62
2022-09-16T06:16:24.823Z,5.62
2022-09-16T06:17:24.809Z,16.88
2022-09-16T06:18:24.803Z,22.50
2022-09-16T06:19:24.791Z,16.88
2022-09-16T06:20:24.789Z,16.88
2022-09-16T06:21:24.805Z,16.88
2022-09-16T06:22:24.758Z,11.25
2022-09-16T06:23:24.747Z,11.25
2022-09-16T06:24:24.735Z,16.88
2022-09-16T06:25:24.767Z,16.88
2022-09-16T06:26:24.726Z,5.62
2022-09-16T06:27:24.812Z,22.50
2022-09-16T06:28:24.690Z,22.50
2022-09-16T06:29:24.676Z,22.50
2022-09-16T06:30:28.076Z,22.50
2022-09-16T06:31:25.743Z,11.25
2022-09-16T06:32:24.647Z,28.12
2022-09-16T06:33:24.633Z,22.50
2022-09-16T06:34:24.633Z,16.88
2022-09-16T06:35:24.622Z,22.50
2022-09-16T06:36:24.602Z,28.12
2022-09-16T06:37:24.601Z,33.75
2022-09-16T06:38:24.583Z,28.12
2022-09-16T06:39:24.570Z,11.25
2022-09-16T06:40:24.734Z,5.62
2022-09-16T06:41:24.543Z,11.25
2022-09-16T06:42:24.533Z,22.50
2022-09-16T06:43:24.643Z,22.50
2022-09-16T06:44:24.512Z,28.12
2022-09-16T06:45:24.506Z,16.88
2022-09-16T06:46:24.646Z,28.12
2022-09-16T06:47:24.478Z,33.75
2022-09-16T06:48:24.468Z,28.12
2022-09-16T06:49:24.460Z,22.50
2022-09-16T06:50:24.455Z,22.50
2022-09-16T06:51:24.436Z,16.88
2022-09-16T06:52:24.426Z,16.88
2022-09-16T06:53:24.420Z,22.50
2022-09-16T06:54:24.409Z,22.50
2022-09-16T06:55:24.418Z,16.88
2022-09-16T06:56:24.381Z,28.12
2022-09-16T06:57:24.367Z,28.12
2022-09-16T06:58:24.359Z,22.50
2022-09-16T06:59:24.468Z,28.12
2022-09-16T07:00:24.350Z,28.12
2022-09-16T07:01:24.357Z,28.12
2022-09-16T07:02:24.349Z,22.50
2022-09-16T07:03:24.307Z,22.50
2022-09-16T07:04:24.297Z,22.50
2022-09-16T07:05:24.290Z,16.88
2022-09-16T07:06:33.350Z,22.50
2022-09-16T07:07:25.264Z,16.88
2022-09-16T07:08:24.249Z,22.50
2022-09-16T07:09:24.239Z,22.50
2022-09-16T07:10:24.240Z,22.50
2022-09-16T07:11:24.221Z,16.88
2022-09-16T07:12:24.205Z,11.25
2022-09-16T07:13:24.192Z,22.50
2022-09-16T07:14:24.181Z,39.38
2022-09-16T07:15:24.307Z,50.62
2022-09-16T07:16:24.223Z,39.38
2022-09-16T07:17:24.148Z,16.88
2022-09-16T07:18:24.140Z,16.88
2022-09-16T07:19:24.139Z,5.62
2022-09-16T07:20:24.132Z,11.25
2022-09-16T07:21:24.103Z,11.25
2022-09-16T07:22:24.095Z,22.50
2022-09-16T07:23:24.083Z,39.38
2022-09-16T07:24:24.074Z,39.38
2022-09-16T07:25:24.070Z,22.50
2022-09-16T07:26:24.047Z,16.88
2022-09-16T07:27:24.038Z,22.50
2022-09-16T07:28:24.028Z,39.38
2022-09-16T07:29:24.017Z,28.12
2022-09-16T07:30:24.024Z,28.12
2022-09-16T07:31:24.180Z,45.00
2022-09-16T07:32:23.980Z,16.88
2022-09-16T07:33:23.974Z,22.50
2022-09-16T07:34:23.957Z,16.88
2022-09-16T07:35:23.963Z,33.75
2022-09-16T07:36:23.937Z,33.75
2022-09-16T07:37:23.927Z,16.88
2022-09-16T07:38:23.914Z,33.75
2022-09-16T07:39:23.908Z,39.38
2022-09-16T07:40:27.827Z,16.88
2022-09-16T07:41:24.880Z,16.88
2022-09-16T07:42:23.873Z,22.50
2022-09-16T07:43:23.869Z,39.38
2022-09-16T07:44:23.850Z,28.12
2022-09-16T07:45:23.856Z,33.75
2022-09-16T07:46:23.831Z,45.00
2022-09-16T07:47:23.932Z,50.62
2022-09-16T07:48:23.804Z,56.25
2022-09-16T07:49:23.798Z,33.75
2022-09-16T07:50:23.807Z,39.38
2022-09-16T07:51:23.777Z,33.75
2022-09-16T07:52:23.763Z,28.12
2022-09-16T07:53:25.252Z,50.62
2022-09-16T07:54:23.739Z,50.62
2022-09-16T07:55:23.744Z,50.62
2022-09-16T07:56:23.725Z,39.38
2022-09-16T07:57:23.706Z,33.75
2022-09-16T07:58:23.700Z,33.75
2022-09-16T07:59:23.685Z,33.75
2022-09-16T08:00:23.685Z,50.62
2022-09-16T08:01:23.711Z,45.00
2022-09-16T08:02:23.792Z,28.12
2022-09-16T08:03:23.755Z,33.75
2022-09-16T08:04:23.641Z,45.00
2022-09-16T08:05:23.646Z,45.00
2022-09-16T08:06:23.606Z,50.62
2022-09-16T08:07:35.962Z,39.38
2022-09-16T08:08:24.596Z,28.12
2022-09-16T08:09:41.003Z,50.62
2022-09-16T08:10:32.510Z,39.38
2022-09-16T08:11:23.560Z,16.88
2022-09-16T08:12:23.544Z,33.75
2022-09-16T08:13:23.536Z,33.75
2022-09-16T08:14:23.523Z,67.50
2022-09-16T08:15:23.522Z,39.38
2022-09-16T08:16:23.578Z,39.38
2022-09-16T08:17:23.501Z,50.62
2022-09-16T08:18:23.478Z,50.62
2022-09-16T08:19:23.589Z,16.88
2022-09-16T08:20:23.466Z,16.88
2022-09-16T08:21:23.444Z,39.38
2022-09-16T08:22:23.427Z,50.62
2022-09-16T08:23:23.436Z,56.25
2022-09-16T08:24:23.414Z,28.12
2022-09-16T08:25:23.452Z,45.00
2022-09-16T08:26:23.390Z,45.00
2022-09-16T08:27:23.380Z,45.00
2022-09-16T08:28:23.362Z,33.75
2022-09-16T08:29:23.359Z,45.00
2022-09-16T08:30:23.359Z,50.62
2022-09-16T08:31:23.363Z,45.00
2022-09-16T08:32:23.327Z,39.38
2022-09-16T08:33:23.330Z,33.75
2022-09-16T08:34:23.299Z,39.38
2022-09-16T08:35:23.421Z,33.75
2022-09-16T08:36:23.276Z,45.00
2022-09-16T08:37:23.272Z,50.62
2022-09-16T08:38:23.260Z,56.25
2022-09-16T08:39:23.247Z,61.88
2022-09-16T08:40:23.245Z,61.88
2022-09-16T08:41:23.225Z,45.00
2022-09-16T08:42:24.908Z,50.62
2022-09-16T08:43:23.201Z,50.62
2022-09-16T08:44:23.195Z,45.00
2022-09-16T08:45:23.231Z,39.38
2022-09-16T08:46:23.168Z,61.88
2022-09-16T08:47:23.163Z,61.88
2022-09-16T08:48:27.982Z,39.38
2022-09-16T08:49:24.154Z,61.88
2022-09-16T08:50:23.154Z,45.00
2022-09-16T08:51:23.269Z,16.88
2022-09-16T08:52:23.123Z,11.25
2022-09-16T08:53:23.108Z,33.75
2022-09-16T08:54:23.095Z,56.25
2022-09-16T08:55:23.098Z,45.00
2022-09-16T08:56:23.070Z,22.50
2022-09-16T08:57:23.071Z,33.75
2022-09-16T08:58:23.047Z,11.25
2022-09-16T08:59:23.053Z,11.25
2022-09-16T09:00:23.042Z,22.50
2022-09-16T09:01:23.133Z,28.12
2022-09-16T09:02:23.301Z,39.38
2022-09-16T09:03:23.004Z,16.88
2022-09-16T09:04:22.985Z,45.00
2022-09-16T09:05:22.992Z,50.62
2022-09-16T09:06:22.967Z,45.00
2022-09-16T09:07:23.084Z,50.62
2022-09-16T09:08:22.944Z,39.38
2022-09-16T09:09:22.939Z,28.12
2022-09-16T09:10:22.941Z,28.12
2022-09-16T09:11:22.915Z,16.88
2022-09-16T09:12:23.584Z,22.50
2022-09-16T09:13:23.261Z,28.12
2022-09-16T09:14:22.882Z,22.50
2022-09-16T09:15:28.009Z,33.75
2022-09-16T09:16:23.957Z,16.88
2022-09-16T09:17:22.844Z,28.12
2022-09-16T09:18:22.834Z,39.38
2022-09-16T09:19:22.831Z,33.75
2022-09-16T09:20:22.822Z,33.75
2022-09-16T09:21:24.460Z,28.12
2022-09-16T09:22:22.793Z,39.38
2022-09-16T09:23:22.925Z,50.62
2022-09-16T09:24:22.771Z,45.00
2022-09-16T09:25:22.770Z,61.88
2022-09-16T09:26:22.746Z,56.25
2022-09-16T09:27:22.745Z,22.50
2022-09-16T09:28:22.723Z,22.50
2022-09-16T09:29:22.723Z,33.75
2022-09-16T09:30:22.713Z,39.38
2022-09-16T09:31:22.712Z,22.50
2022-09-16T09:32:22.708Z,28.12
2022-09-16T09:33:45.031Z,33.75
2022-09-16T09:34:23.662Z,39.38
2022-09-16T09:35:22.661Z,33.75
2022-09-16T09:36:22.647Z,33.75
2022-09-16T09:37:22.630Z,33.75
2022-09-16T09:38:22.624Z,50.62
2022-09-16T09:39:22.728Z,50.62
2022-09-16T09:40:22.638Z,50.62
2022-09-16T09:41:22.586Z,50.62
2022-09-16T09:42:22.579Z,45.00
2022-09-16T09:43:22.567Z,28.12
2022-09-16T09:44:22.549Z,45.00
2022-09-16T09:45:22.557Z,61.88
2022-09-16T09:46:22.649Z,67.50
2022-09-16T09:47:22.520Z,56.25
2022-09-16T09:48:22.507Z,39.38
2022-09-16T09:49:22.503Z,28.12
2022-09-16T09:50:22.499Z,56.25
2022-09-16T09:51:22.484Z,50.62
2022-09-16T09:52:22.467Z,67.50
2022-09-16T09:53:22.459Z,61.88
2022-09-16T09:54:22.437Z,50.62
2022-09-16T09:55:22.574Z,39.38
2022-09-16T09:56:22.420Z,33.75
2022-09-16T09:57:22.407Z,67.50
2022-09-16T09:58:22.397Z,73.12
2022-09-16T09:59:22.382Z,39.38
2022-09-16T10:00:22.382Z,28.12
2022-09-16T10:01:22.424Z,39.38
2022-09-16T10:02:22.380Z,33.75
2022-09-16T10:03:22.342Z,39.38
2022-09-16T10:04:22.326Z,67.50
2022-09-16T10:05:22.329Z,67.50
2022-09-16T10:06:22.308Z,61.88
2022-09-16T10:07:22.297Z,50.62
2022-09-16T10:08:22.291Z,45.00
2022-09-16T10:09:22.278Z,33.75
2022-09-16T10:10:22.279Z,33.75
2022-09-16T10:11:22.377Z,50.62
2022-09-16T10:12:22.245Z,45.00
2022-09-16T10:13:22.230Z,28.12
2022-09-16T10:14:22.220Z,22.50
2022-09-16T10:15:22.221Z,39.38
2022-09-16T10:16:22.259Z,45.00
2022-09-16T10:17:22.189Z,22.50
2022-09-16T10:18:22.176Z,45.00
2022-09-16T10:19:22.162Z,33.75
2022-09-16T10:20:22.167Z,33.75
2022-09-16T10:21:22.137Z,33.75
2022-09-16T10:22:22.131Z,22.50
2022-09-16T10:23:24.359Z,22.50
2022-09-16T10:24:22.105Z,11.25
2022-09-16T10:25:22.108Z,16.88
2022-09-16T10:26:22.079Z,22.50
2022-09-16T10:27:22.204Z,28.12
2022-09-16T10:28:22.062Z,39.38
2022-09-16T10:29:22.057Z,56.25
2022-09-16T10:31:22.093Z,28.12
2022-09-16T10:32:22.058Z,39.38
2022-09-16T10:33:22.020Z,45.00
2022-09-16T10:34:21.997Z,45.00
2022-09-16T10:35:21.993Z,28.12
2022-09-16T10:36:21.980Z,16.88
2022-09-16T10:37:21.958Z,22.50
2022-09-16T10:38:21.947Z,39.38
2022-09-16T10:39:21.943Z,33.75
2022-09-16T10:40:21.974Z,28.12
2022-09-16T10:41:21.916Z,33.75
2022-09-16T10:42:21.904Z,56.25
2022-09-16T10:43:22.019Z,28.12
2022-09-16T10:44:21.896Z,22.50
2022-09-16T10:45:21.881Z,33.75
2022-09-16T10:46:21.921Z,39.38
2022-09-16T10:47:21.854Z,39.38
2022-09-16T10:48:21.843Z,16.88
2022-09-16T10:49:21.828Z,11.25
2022-09-16T10:50:21.829Z,22.50
2022-09-16T10:51:21.808Z,106.88
2022-09-16T10:52:21.805Z,28.12
2022-09-16T10:53:21.843Z,298.12
2022-09-16T10:54:21.774Z,337.50
2022-09-16T10:55:21.775Z,50.62
2022-09-16T10:56:21.749Z,101.25
2022-09-16T10:57:21.737Z,33.75
2022-09-16T10:58:21.731Z,39.38
2022-09-16T10:59:21.840Z,50.62
2022-09-16T11:00:21.723Z,39.38
2022-09-16T11:01:22.144Z,16.88
2022-09-16T11:02:21.738Z,11.25
2022-09-16T11:03:23.714Z,11.25
2022-09-16T11:04:21.667Z,11.25
2022-09-16T11:05:24.083Z,11.25
2022-09-16T11:06:21.640Z,22.50
2022-09-16T11:07:21.636Z,151.88
2022-09-16T11:08:21.625Z,39.38
2022-09-16T11:09:21.610Z,39.38
2022-09-16T11:10:21.606Z,28.12
2022-09-16T11:11:21.662Z,22.50
2022-09-16T11:12:21.576Z,16.88
2022-09-16T11:13:21.601Z,16.88
2022-09-16T11:14:21.559Z,33.75
2022-09-16T11:15:21.683Z,33.75
2022-09-16T11:16:21.587Z,28.12
2022-09-16T11:17:21.529Z,16.88
2022-09-16T11:18:21.519Z,16.88
2022-09-16T11:19:21.505Z,11.25
2022-09-16T11:20:21.496Z,28.12
2022-09-16T11:21:21.483Z,61.88
2022-09-16T11:22:21.476Z,61.88
2022-09-16T11:23:21.461Z,106.88
2022-09-16T11:24:21.458Z,78.75
2022-09-16T11:25:21.455Z,112.50
2022-09-16T11:26:21.429Z,45.00
2022-09-16T11:27:21.414Z,67.50
2022-09-16T11:28:21.407Z,56.25
2022-09-16T11:29:25.406Z,50.62
2022-09-16T11:30:22.421Z,56.25
2022-09-16T11:31:21.550Z,56.25
2022-09-16T11:32:21.355Z,50.62
2022-09-16T11:33:21.372Z,50.62
2022-09-16T11:34:21.343Z,56.25
2022-09-16T11:35:21.341Z,50.62
2022-09-16T11:36:21.311Z,33.75
2022-09-16T11:37:21.307Z,84.38
2022-09-16T11:38:21.293Z,56.25
2022-09-16T11:39:21.282Z,50.62
2022-09-16T11:40:21.387Z,39.38
2022-09-16T11:41:21.263Z,61.88
2022-09-16T11:42:21.251Z,78.75
2022-09-16T11:43:21.241Z,95.62
2022-09-16T11:44:21.227Z,95.62
2022-09-16T11:45:21.229Z,106.88
2022-09-16T11:46:21.246Z,118.12
2022-09-16T11:47:21.315Z,90.00
2022-09-16T11:48:21.192Z,90.00
2022-09-16T11:49:21.181Z,281.25
2022-09-16T11:50:21.176Z,50.62
2022-09-16T11:51:21.147Z,73.12
2022-09-16T11:52:21.141Z,50.62
2022-09-16T11:53:23.246Z,61.88
2022-09-16T11:55:21.115Z,61.88
2022-09-16T11:56:21.095Z,61.88
2022-09-16T11:57:21.086Z,16.88
2022-09-16T11:58:21.070Z,16.88
2022-09-16T11:59:21.062Z,16.88
2022-09-16T12:00:21.062Z,16.88
2022-09-16T12:01:21.045Z,73.12
2022-09-16T12:02:21.095Z,61.88
2022-09-16T12:03:21.192Z,56.25
2022-09-16T12:04:21.042Z,50.62
2022-09-16T12:05:21.019Z,67.50
2022-09-16T12:06:20.981Z,84.38
2022-09-16T12:08:20.967Z,61.88
2022-09-16T12:09:20.948Z,45.00
2022-09-16T12:10:20.953Z,84.38
2022-09-16T12:11:20.935Z,67.50
2022-09-16T12:12:20.916Z,101.25
2022-09-16T12:13:20.915Z,78.75
2022-09-16T12:14:20.904Z,78.75
2022-09-16T12:15:20.896Z,73.12
2022-09-16T12:16:20.874Z,163.12
2022-09-16T12:17:20.875Z,61.88
2022-09-16T12:18:20.855Z,202.50
2022-09-16T12:19:20.974Z,78.75
2022-09-16T12:20:20.847Z,61.88
2022-09-16T12:21:20.821Z,73.12
2022-09-16T12:22:20.811Z,45.00
2022-09-16T12:23:20.799Z,45.00
2022-09-16T12:24:20.788Z,45.00
2022-09-16T12:25:20.790Z,50.62
2022-09-16T12:26:20.771Z,56.25
2022-09-16T12:27:20.761Z,56.25
2022-09-16T12:28:20.746Z,67.50
2022-09-16T12:29:20.734Z,45.00
2022-09-16T12:30:20.743Z,90.00
2022-09-16T12:31:23.861Z,73.12
2022-09-16T12:32:20.703Z,84.38
2022-09-16T12:33:20.688Z,95.62
2022-09-16T12:34:20.682Z,101.25
2022-09-16T12:35:20.867Z,112.50
2022-09-16T12:36:23.252Z,95.62
2022-09-16T12:37:20.649Z,106.88
2022-09-16T12:38:20.651Z,129.38
2022-09-16T12:39:20.628Z,123.75
2022-09-16T12:40:20.844Z,123.75
2022-09-16T12:41:20.604Z,118.12
2022-09-16T12:42:20.596Z,39.38
2022-09-16T12:43:20.584Z,1231.88
2022-09-16T12:44:33.999Z,928.12
2022-09-16T12:45:21.572Z,956.25
2022-09-16T12:46:20.586Z,410.62
2022-09-16T12:47:20.534Z,450.00
2022-09-16T12:48:20.531Z,1479.38
2022-09-16T12:49:20.514Z,1265.62
2022-09-16T12:50:20.520Z,45.00
2022-09-16T12:51:20.624Z,225.00
2022-09-16T12:52:20.484Z,748.12
2022-09-16T12:53:20.472Z,16.88
2022-09-16T12:54:20.465Z,28.12
2022-09-16T12:55:20.463Z,427.50
2022-09-16T12:56:20.446Z,270.00
2022-09-16T12:57:20.429Z,511.88
2022-09-16T12:58:20.426Z,601.88
2022-09-16T12:59:20.412Z,61.88
2022-09-16T13:00:20.412Z,1153.12
2022-09-16T13:01:20.416Z,1125.00
2022-09-16T13:02:20.454Z,900.00
2022-09-16T13:03:20.421Z,928.12
2022-09-16T13:04:20.358Z,1080.00
2022-09-16T13:05:20.350Z,748.12
2022-09-16T13:06:20.335Z,478.12